Time;durP1;ratioP1;P1;durP2;ratioP2;P2;SDS_P1;SDS_P2;PMS_P1;PMS_P2;Temp;Humidity;BMP_temperature;BMP_pressure;BME280_temperature;BME280_humidity;BME280_pressure;Samples;Min_cycle;Max_cycle;Signal;HPM_P1;HPM_P2
2023/09/09 00:00:52;;;;;;;12.10;10.02;;;20.30;99.90;;;;;;4980039;28;20100;-79
2023/09/09 00:03:19;;;;;;;12.23;10.43;;;20.30;99.90;;;;;;4975955;28;20046;-79
2023/09/09 00:05:45;;;;;;;11.50;9.75;;;20.30;99.90;;;;;;4978304;28;20034;-79
2023/09/09 00:08:11;;;;;;;12.45;10.23;;;20.20;99.90;;;;;;4975956;28;20144;-78
2023/09/09 00:10:37;;;;;;;10.45;8.90;;;20.20;99.90;;;;;;4981495;28;20042;-79
2023/09/09 00:13:05;;;;;;;12.45;10.13;;;20.20;99.90;;;;;;4971856;28;20811;-79
2023/09/09 00:15:31;;;;;;;11.88;9.95;;;20.20;99.90;;;;;;4979436;28;20043;-78
2023/09/09 00:17:57;;;;;;;12.82;10.48;;;20.10;99.90;;;;;;4982812;28;20049;-78
2023/09/09 00:20:32;;;;;;;11.68;9.70;;;20.10;99.90;;;;;;4982769;28;20043;-78
2023/09/09 00:22:58;;;;;;;11.15;9.02;;;20.10;99.90;;;;;;4974142;28;20066;-79
2023/09/09 00:25:24;;;;;;;13.60;10.15;;;20.10;99.90;;;;;;4958329;28;20113;-78
2023/09/09 00:27:49;;;;;;;11.95;9.70;;;20.10;99.90;;;;;;4974389;28;20035;-79
2023/09/09 00:30:15;;;;;;;12.00;10.52;;;20.00;99.90;;;;;;4971133;28;20163;-79
2023/09/09 00:32:41;;;;;;;12.73;9.90;;;20.00;99.90;;;;;;4975667;28;20077;-78
2023/09/09 00:35:07;;;;;;;11.65;10.15;;;20.00;99.90;;;;;;4980113;28;20038;-79
2023/09/09 00:37:33;;;;;;;12.13;10.73;;;20.00;99.90;;;;;;4974628;28;20450;-79
2023/09/09 00:39:58;;;;;;;13.20;9.82;;;20.00;99.90;;;;;;4989872;28;20039;-78
2023/09/09 00:42:24;;;;;;;13.02;11.05;;;19.90;99.90;;;;;;4978382;28;20107;-79
2023/09/09 00:44:50;;;;;;;13.38;11.38;;;19.90;99.90;;;;;;4978324;28;20046;-78
2023/09/09 00:47:17;;;;;;;11.55;10.02;;;19.90;99.90;;;;;;4980346;28;20058;-78
2023/09/09 00:49:43;;;;;;;12.35;9.95;;;19.90;99.90;;;;;;4981035;28;20050;-79
2023/09/09 00:52:09;;;;;;;14.40;10.68;;;19.90;99.90;;;;;;4976141;28;20049;-78
2023/09/09 00:54:35;;;;;;;12.55;10.68;;;19.90;99.90;;;;;;4995484;28;20496;-79
2023/09/09 00:57:03;;;;;;;12.00;10.43;;;19.90;99.90;;;;;;4981180;28;20787;-79
2023/09/09 00:59:29;;;;;;;12.75;10.07;;;19.80;99.90;;;;;;4975521;28;20085;-79
2023/09/09 01:01:56;;;;;;;12.98;10.40;;;19.80;99.90;;;;;;4985418;28;20074;-79
2023/09/09 01:04:22;;;;;;;13.27;10.48;;;19.70;99.90;;;;;;4973353;28;20046;-78
2023/09/09 01:06:48;;;;;;;11.68;10.05;;;19.70;99.90;;;;;;4979426;28;20121;-79
2023/09/09 01:09:15;;;;;;;13.25;10.63;;;19.70;99.90;;;;;;4994544;28;20039;-79
2023/09/09 01:11:41;;;;;;;11.88;9.65;;;19.60;99.90;;;;;;4985168;28;20409;-78
2023/09/09 01:14:07;;;;;;;12.73;11.00;;;19.50;99.90;;;;;;4980452;28;20045;-78
2023/09/09 01:16:33;;;;;;;14.00;10.88;;;19.50;99.90;;;;;;4995589;28;20042;-78
2023/09/09 01:18:59;;;;;;;11.70;10.10;;;19.50;99.90;;;;;;5001318;28;20089;-78
2023/09/09 01:21:29;;;;;;;12.27;10.35;;;19.50;99.90;;;;;;4984536;28;20035;-79
2023/09/09 01:23:55;;;;;;;13.32;11.05;;;19.50;99.90;;;;;;4980723;28;20390;-79
2023/09/09 01:26:20;;;;;;;14.32;11.07;;;19.40;99.90;;;;;;4982695;28;20046;-78
2023/09/09 01:28:46;;;;;;;12.52;9.75;;;19.40;99.90;;;;;;4980007;28;20046;-78
2023/09/09 01:31:12;;;;;;;13.23;10.52;;;19.40;99.90;;;;;;4975447;28;20050;-78
2023/09/09 01:33:38;;;;;;;12.65;11.18;;;19.40;99.90;;;;;;4977754;28;20070;-78
2023/09/09 01:36:04;;;;;;;14.82;11.98;;;19.40;99.90;;;;;;4977803;28;20080;-78
2023/09/09 01:38:34;;;;;;;13.68;11.00;;;19.40;99.90;;;;;;4980962;28;20046;-78
2023/09/09 01:41:00;;;;;;;14.77;12.05;;;19.40;99.90;;;;;;4976995;28;20045;-79
2023/09/09 01:43:25;;;;;;;15.05;12.68;;;19.30;99.90;;;;;;4977321;28;20046;-79
2023/09/09 01:45:51;;;;;;;18.95;15.15;;;19.40;99.90;;;;;;4978140;28;20043;-78
2023/09/09 01:48:17;;;;;;;17.55;14.55;;;19.30;99.90;;;;;;4975249;28;20109;-79
2023/09/09 01:50:44;;;;;;;20.88;16.20;;;19.30;99.90;;;;;;4983261;28;20042;-78
2023/09/09 01:53:10;;;;;;;21.75;16.67;;;19.30;99.90;;;;;;4978351;28;20047;-78
2023/09/09 01:55:38;;;;;;;31.27;23.95;;;19.30;99.90;;;;;;4986208;28;20046;-79
2023/09/09 01:58:04;;;;;;;21.35;17.00;;;19.30;99.90;;;;;;4973009;28;20043;-79
2023/09/09 02:00:30;;;;;;;22.20;18.02;;;19.20;99.90;;;;;;4990930;28;20058;-78
2023/09/09 02:02:56;;;;;;;28.58;22.00;;;19.20;99.90;;;;;;4980388;28;20090;-78
2023/09/09 02:05:21;;;;;;;27.10;20.35;;;19.20;99.90;;;;;;4976603;28;20074;-78
2023/09/09 02:07:47;;;;;;;35.70;26.17;;;19.20;99.90;;;;;;4982191;28;20085;-78
2023/09/09 02:10:13;;;;;;;29.65;23.83;;;19.20;99.90;;;;;;4979111;28;20134;-78
2023/09/09 02:12:38;;;;;;;30.25;24.50;;;19.10;99.90;;;;;;4980812;28;20069;-78
2023/09/09 02:15:04;;;;;;;38.65;25.90;;;19.10;99.90;;;;;;4978278;28;20050;-78
2023/09/09 02:17:30;;;;;;;30.25;22.40;;;19.10;99.90;;;;;;4979246;28;20093;-78
2023/09/09 02:19:56;;;;;;;35.25;26.90;;;19.10;99.90;;;;;;4975958;28;20050;-78
2023/09/09 02:22:23;;;;;;;28.45;22.25;;;19.10;99.90;;;;;;4980514;28;20094;-79
2023/09/09 02:24:56;;;;;;;31.90;23.35;;;19.10;99.90;;;;;;4979908;28;20042;-78
2023/09/09 02:27:23;;;;;;;43.38;32.75;;;19.10;99.90;;;;;;4979467;28;20090;-78
2023/09/09 02:29:49;;;;;;;45.78;35.05;;;19.10;99.90;;;;;;4962544;28;20039;-78
2023/09/09 02:32:18;;;;;;;47.20;35.13;;;19.10;99.90;;;;;;4977132;28;20049;-79
2023/09/09 02:34:44;;;;;;;43.17;32.60;;;19.10;99.90;;;;;;4980559;28;20045;-78
2023/09/09 02:37:16;;;;;;;51.80;37.25;;;19.10;99.90;;;;;;4976796;28;20074;-78
2023/09/09 02:39:43;;;;;;;50.45;35.72;;;19.10;99.90;;;;;;4982929;28;20085;-78
2023/09/09 02:42:15;;;;;;;49.90;36.95;;;19.10;99.90;;;;;;4980582;28;20100;-78
2023/09/09 02:44:41;;;;;;;40.17;30.60;;;19.10;99.90;;;;;;4980590;28;20044;-78
2023/09/09 02:47:08;;;;;;;49.15;36.60;;;19.00;99.90;;;;;;4979092;28;20051;-78
2023/09/09 02:49:35;;;;;;;48.00;38.13;;;19.00;99.90;;;;;;4979373;28;20035;-78
2023/09/09 02:52:01;;;;;;;49.25;35.92;;;19.00;99.90;;;;;;4977141;28;20066;-78
2023/09/09 02:54:26;;;;;;;43.20;32.70;;;19.00;99.90;;;;;;4979281;28;20117;-78
2023/09/09 02:56:52;;;;;;;43.97;33.03;;;19.00;99.90;;;;;;4972213;28;20129;-78
2023/09/09 02:59:18;;;;;;;40.90;33.03;;;19.00;99.90;;;;;;4975648;28;20038;-78
2023/09/09 03:01:43;;;;;;;36.72;28.50;;;18.90;99.90;;;;;;4986202;28;20152;-78
2023/09/09 03:04:10;;;;;;;39.70;30.02;;;18.90;99.90;;;;;;4977328;28;20046;-78
2023/09/09 03:06:36;;;;;;;30.17;24.17;;;18.90;99.90;;;;;;4976493;28;20117;-78
2023/09/09 03:09:02;;;;;;;29.25;20.98;;;18.90;99.90;;;;;;4974127;28;20133;-78
2023/09/09 03:11:28;;;;;;;34.10;26.10;;;18.80;99.90;;;;;;4976257;28;20042;-78
2023/09/09 03:13:53;;;;;;;34.20;26.65;;;18.80;99.90;;;;;;4998185;28;20038;-78
2023/09/09 03:16:19;;;;;;;34.20;24.80;;;18.80;99.90;;;;;;4980458;28;20034;-78
2023/09/09 03:18:45;;;;;;;34.20;24.50;;;18.80;99.90;;;;;;4972549;28;20596;-78
2023/09/09 03:21:11;;;;;;;32.00;24.52;;;18.80;99.90;;;;;;4978204;28;20042;-78
2023/09/09 03:23:36;;;;;;;31.70;24.58;;;18.80;99.90;;;;;;4973048;28;20082;-78
2023/09/09 03:26:04;;;;;;;27.67;23.20;;;18.80;99.90;;;;;;4973442;28;20047;-79
2023/09/09 03:28:30;;;;;;;25.45;20.23;;;18.80;99.90;;;;;;4975357;28;20077;-78
2023/09/09 03:30:57;;;;;;;27.38;20.92;;;18.80;99.90;;;;;;4975158;28;20050;-78
2023/09/09 03:33:24;;;;;;;23.75;16.90;;;18.80;99.90;;;;;;4971970;28;20050;-78
2023/09/09 03:35:50;;;;;;;25.02;18.90;;;18.80;99.90;;;;;;4973901;28;20072;-78
2023/09/09 03:38:16;;;;;;;22.13;18.65;;;18.80;99.90;;;;;;4975443;28;20672;-78
2023/09/09 03:40:44;;;;;;;24.30;17.35;;;18.80;99.90;;;;;;4974402;28;20047;-78
2023/09/09 03:43:11;;;;;;;19.77;17.02;;;18.80;99.90;;;;;;4972841;28;20500;-78
2023/09/09 03:45:37;;;;;;;25.95;19.05;;;18.80;99.90;;;;;;4973626;28;20043;-78
2023/09/09 03:48:06;;;;;;;23.00;17.95;;;18.80;99.90;;;;;;4970936;28;20481;-78
2023/09/09 03:50:33;;;;;;;27.85;19.83;;;18.80;99.90;;;;;;4978629;28;20038;-79
2023/09/09 03:52:59;;;;;;;23.27;19.40;;;18.80;99.90;;;;;;4973180;28;20097;-78
2023/09/09 03:55:25;;;;;;;22.55;17.85;;;18.80;99.90;;;;;;4974642;28;20067;-79
2023/09/09 03:57:51;;;;;;;30.45;23.45;;;18.80;99.90;;;;;;4974358;28;20135;-78
2023/09/09 04:00:17;;;;;;;26.60;20.45;;;18.80;99.90;;;;;;4974016;28;20061;-79
2023/09/09 04:02:43;;;;;;;28.17;21.92;;;18.80;99.90;;;;;;4973482;28;20093;-79
2023/09/09 04:05:09;;;;;;;24.02;19.45;;;18.70;99.90;;;;;;4981592;28;20042;-79
2023/09/09 04:07:36;;;;;;;23.08;19.92;;;18.70;99.90;;;;;;4976332;28;20034;-79
2023/09/09 04:10:05;;;;;;;22.40;17.52;;;18.70;99.90;;;;;;4979153;28;20052;-78
2023/09/09 04:12:31;;;;;;;23.10;18.58;;;18.60;99.90;;;;;;4970932;28;20358;-78
2023/09/09 04:14:57;;;;;;;22.25;18.52;;;18.60;99.90;;;;;;4975872;28;20056;-78
2023/09/09 04:17:22;;;;;;;26.05;20.48;;;18.60;99.90;;;;;;4973734;28;20450;-78
2023/09/09 04:19:48;;;;;;;28.58;21.90;;;18.60;99.90;;;;;;4977223;28;20042;-78
2023/09/09 04:22:14;;;;;;;23.20;18.27;;;18.60;99.90;;;;;;4975539;28;20042;-78
2023/09/09 04:24:40;;;;;;;23.25;18.45;;;18.50;99.90;;;;;;4974760;28;20091;-78
2023/09/09 04:27:05;;;;;;;27.65;18.98;;;18.50;99.90;;;;;;4976249;28;20345;-78
2023/09/09 04:29:31;;;;;;;19.23;16.88;;;18.50;99.90;;;;;;4971068;28;20070;-78
2023/09/09 04:31:57;;;;;;;24.65;18.70;;;18.50;99.90;;;;;;4973609;28;20053;-78
2023/09/09 04:34:23;;;;;;;25.20;19.63;;;18.50;99.90;;;;;;4982511;28;20466;-78
2023/09/09 04:36:49;;;;;;;20.77;16.15;;;18.50;99.90;;;;;;4975753;28;20042;-78
2023/09/09 04:39:15;;;;;;;25.88;20.35;;;18.50;99.90;;;;;;4961282;28;20669;-78
2023/09/09 04:41:44;;;;;;;26.17;20.60;;;18.50;99.90;;;;;;4979780;28;20054;-78
2023/09/09 04:44:10;;;;;;;21.25;16.23;;;18.40;99.90;;;;;;4972759;28;20039;-78
2023/09/09 04:46:35;;;;;;;23.92;20.33;;;18.50;99.90;;;;;;4971383;28;20110;-78
2023/09/09 04:49:03;;;;;;;24.30;21.38;;;18.40;99.90;;;;;;4975455;28;20133;-78
2023/09/09 04:51:31;;;;;;;22.40;18.75;;;18.40;99.90;;;;;;4968500;28;20070;-78
2023/09/09 04:53:57;;;;;;;22.80;17.52;;;18.40;99.90;;;;;;4971289;28;20118;-78
2023/09/09 04:56:23;;;;;;;24.58;20.02;;;18.40;99.90;;;;;;4975209;28;20051;-78
2023/09/09 04:58:49;;;;;;;22.38;17.92;;;18.40;99.90;;;;;;4969378;28;20477;-78
2023/09/09 05:01:15;;;;;;;23.02;18.38;;;18.40;99.90;;;;;;4973152;28;20126;-78
2023/09/09 05:03:41;;;;;;;23.42;17.85;;;18.40;99.90;;;;;;4972327;28;20481;-78
2023/09/09 05:06:07;;;;;;;23.77;19.67;;;18.30;99.90;;;;;;4979099;28;20066;-78
2023/09/09 05:08:32;;;;;;;24.63;21.30;;;18.30;99.90;;;;;;4973632;28;20074;-78
2023/09/09 05:10:58;;;;;;;27.02;20.70;;;18.30;99.90;;;;;;4972204;28;20047;-78
2023/09/09 05:13:24;;;;;;;23.38;19.23;;;18.30;99.90;;;;;;4979259;28;20050;-78
2023/09/09 05:15:51;;;;;;;25.17;20.00;;;18.30;99.90;;;;;;4972865;28;20043;-78
2023/09/09 05:18:17;;;;;;;25.42;19.00;;;18.20;99.90;;;;;;4972502;28;20116;-78
2023/09/09 05:20:43;;;;;;;21.40;16.70;;;18.30;99.90;;;;;;4971369;28;20085;-78
2023/09/09 05:23:09;;;;;;;26.63;20.38;;;18.30;99.90;;;;;;4969204;28;20039;-78
2023/09/09 05:25:35;;;;;;;26.70;18.98;;;18.30;99.90;;;;;;4970694;28;20122;-77
2023/09/09 05:28:00;;;;;;;23.77;20.13;;;18.20;99.90;;;;;;4977968;28;20038;-79
2023/09/09 05:30:26;;;;;;;23.70;20.52;;;18.30;99.90;;;;;;4976940;28;20049;-78
2023/09/09 05:32:52;;;;;;;25.58;20.25;;;18.20;99.90;;;;;;4973513;28;20043;-78
2023/09/09 05:35:17;;;;;;;23.10;19.65;;;18.20;99.90;;;;;;4975504;28;20237;-78
2023/09/09 05:37:45;;;;;;;27.13;20.80;;;18.20;99.90;;;;;;4969836;28;20249;-78
2023/09/09 05:40:11;;;;;;;23.40;19.65;;;18.20;99.90;;;;;;4975613;28;20058;-78
2023/09/09 05:42:38;;;;;;;24.83;20.60;;;18.20;99.90;;;;;;4974107;28;20039;-78
2023/09/09 05:45:04;;;;;;;21.10;18.55;;;18.20;99.90;;;;;;4971352;28;20089;-78
2023/09/09 05:47:30;;;;;;;23.67;19.05;;;18.20;99.90;;;;;;4976749;28;20049;-79
2023/09/09 05:49:55;;;;;;;26.95;20.58;;;18.20;99.90;;;;;;4975602;28;20051;-78
2023/09/09 05:52:21;;;;;;;24.05;19.40;;;18.20;99.90;;;;;;4985823;28;20104;-80
2023/09/09 05:54:47;;;;;;;17.33;14.32;;;18.20;99.90;;;;;;4976837;28;20038;-80
2023/09/09 05:57:13;;;;;;;24.80;19.75;;;18.20;99.90;;;;;;4978485;28;20046;-80
2023/09/09 05:59:38;;;;;;;26.85;21.50;;;18.20;99.90;;;;;;4982808;28;20042;-79
2023/09/09 06:02:05;;;;;;;25.58;21.27;;;18.20;99.90;;;;;;4975526;28;20425;-79
2023/09/09 06:04:34;;;;;;;26.80;20.92;;;18.20;99.90;;;;;;4973943;28;20174;-79
2023/09/09 06:06:59;;;;;;;22.15;17.80;;;18.30;99.90;;;;;;4973254;28;20118;-79
2023/09/09 06:09:25;;;;;;;25.95;18.67;;;18.30;99.90;;;;;;4982540;28;20181;-79
2023/09/09 06:11:51;;;;;;;25.08;20.40;;;18.30;99.90;;;;;;4981112;28;20141;-79
2023/09/09 06:14:16;;;;;;;27.25;22.42;;;18.30;99.90;;;;;;4983055;28;20061;-79
2023/09/09 06:16:42;;;;;;;25.52;19.60;;;18.30;99.90;;;;;;4981521;28;20054;-79
2023/09/09 06:19:08;;;;;;;27.55;23.42;;;18.40;99.90;;;;;;4971640;28;20054;-80
2023/09/09 06:21:34;;;;;;;29.02;23.45;;;18.40;99.90;;;;;;4976605;28;20051;-81
2023/09/09 06:23:59;;;;;;;31.48;24.00;;;18.40;99.90;;;;;;4976244;28;20070;-81
2023/09/09 06:26:30;;;;;;;28.83;22.00;;;18.40;99.90;;;;;;4985525;28;20042;-81
2023/09/09 06:28:56;;;;;;;26.48;22.20;;;18.40;99.90;;;;;;4972450;28;20065;-80
2023/09/09 06:31:22;;;;;;;30.80;23.88;;;18.40;99.90;;;;;;4977533;28;20050;-81
2023/09/09 06:33:47;;;;;;;27.65;22.63;;;18.50;99.90;;;;;;4972377;28;20035;-81
2023/09/09 06:36:13;;;;;;;31.08;24.88;;;18.50;99.90;;;;;;4981759;28;20050;-81
2023/09/09 06:38:39;;;;;;;28.45;21.88;;;18.50;99.90;;;;;;4981291;28;20065;-81
2023/09/09 06:41:05;;;;;;;30.67;23.33;;;18.60;99.90;;;;;;4982483;28;20414;-81
2023/09/09 06:43:30;;;;;;;29.48;24.13;;;18.60;99.90;;;;;;4975350;28;20478;-81
2023/09/09 06:45:57;;;;;;;29.73;23.05;;;18.60;99.90;;;;;;4982020;28;20134;-81
2023/09/09 06:48:22;;;;;;;28.02;23.58;;;18.70;99.90;;;;;;4975463;28;20486;-81
2023/09/09 06:50:49;;;;;;;27.10;23.27;;;18.70;99.90;;;;;;4961368;28;20030;-81
2023/09/09 06:53:15;;;;;;;27.40;22.27;;;18.70;99.90;;;;;;4970954;28;20565;-81
2023/09/09 06:55:44;;;;;;;28.65;23.77;;;18.80;99.90;;;;;;4972783;28;20038;-81
2023/09/09 06:58:10;;;;;;;26.20;22.25;;;18.80;99.90;;;;;;4972539;28;20046;-80
2023/09/09 07:00:36;;;;;;;27.45;21.98;;;18.90;99.90;;;;;;4979961;28;20038;-82
2023/09/09 07:03:03;;;;;;;25.42;22.13;;;18.90;99.90;;;;;;4977019;28;20137;-82
2023/09/09 07:05:31;;;;;;;23.48;20.85;;;19.00;99.90;;;;;;4977681;28;20042;-84
2023/09/09 07:07:56;;;;;;;27.00;23.40;;;19.00;99.90;;;;;;4974858;28;20046;-81
2023/09/09 07:10:24;;;;;;;25.23;21.77;;;19.10;99.90;;;;;;4966668;28;20050;-81
2023/09/09 07:12:50;;;;;;;26.58;22.00;;;19.10;99.90;;;;;;4991186;28;20486;-81
2023/09/09 07:15:16;;;;;;;30.90;22.95;;;19.10;99.90;;;;;;4975296;28;20058;-81
2023/09/09 07:17:46;;;;;;;28.58;23.63;;;19.20;99.90;;;;;;4975263;28;20049;-81
2023/09/09 07:20:12;;;;;;;28.48;24.02;;;19.20;99.90;;;;;;4972468;28;20055;-82
2023/09/09 07:22:38;;;;;;;27.00;24.08;;;19.20;99.90;;;;;;4976191;28;20126;-81
2023/09/09 07:25:05;;;;;;;31.98;25.55;;;19.30;99.90;;;;;;4970444;28;20043;-81
2023/09/09 07:27:31;;;;;;;32.97;25.45;;;19.30;99.90;;;;;;4971434;28;20157;-82
2023/09/09 07:29:57;;;;;;;25.08;20.48;;;19.40;99.90;;;;;;4969807;28;20129;-82
2023/09/09 07:32:22;;;;;;;34.38;26.52;;;19.40;99.90;;;;;;4971123;28;20536;-82
2023/09/09 07:34:49;;;;;;;29.63;24.45;;;19.50;99.90;;;;;;4960711;28;20496;-82
2023/09/09 07:37:15;;;;;;;32.20;25.80;;;19.50;99.90;;;;;;4972840;28;20065;-82
2023/09/09 07:39:46;;;;;;;31.63;25.58;;;19.60;99.90;;;;;;4971716;28;20050;-82
2023/09/09 07:42:16;;;;;;;34.17;26.38;;;19.70;99.90;;;;;;4974153;28;20042;-81
2023/09/09 07:44:43;;;;;;;32.72;27.45;;;19.70;99.90;;;;;;4970911;28;20041;-82
2023/09/09 07:47:09;;;;;;;31.73;27.02;;;19.80;99.90;;;;;;4969987;28;20046;-81
2023/09/09 07:49:35;;;;;;;27.58;24.27;;;19.80;99.90;;;;;;4970452;28;20047;-81
2023/09/09 07:52:04;;;;;;;33.25;29.33;;;19.80;99.90;;;;;;4969651;28;20050;-82
2023/09/09 07:54:30;;;;;;;36.35;28.38;;;19.90;99.90;;;;;;4965133;28;20039;-82
2023/09/09 07:56:58;;;;;;;37.00;29.52;;;19.90;99.90;;;;;;4976603;28;20077;-82
2023/09/09 07:59:24;;;;;;;33.75;30.05;;;20.00;99.90;;;;;;4969827;28;20361;-81
2023/09/09 08:01:50;;;;;;;36.30;31.35;;;20.00;99.90;;;;;;4976624;28;20074;-82
2023/09/09 08:04:16;;;;;;;39.10;32.63;;;20.10;99.90;;;;;;4961906;28;20503;-82
2023/09/09 08:06:44;;;;;;;38.90;32.58;;;20.10;99.90;;;;;;4982053;28;20438;-82
2023/09/09 08:09:11;;;;;;;40.95;34.65;;;20.20;99.90;;;;;;4976737;28;20039;-82
2023/09/09 08:11:36;;;;;;;41.03;34.63;;;20.30;99.90;;;;;;4970170;28;20547;-82
2023/09/09 08:14:02;;;;;;;45.40;33.92;;;20.30;99.90;;;;;;4968415;28;20042;-81
2023/09/09 08:16:28;;;;;;;39.22;34.97;;;20.40;99.90;;;;;;4990404;28;20098;-82
2023/09/09 08:18:55;;;;;;;40.75;32.80;;;20.40;99.90;;;;;;4980151;28;20042;-82
2023/09/09 08:21:21;;;;;;;41.50;33.75;;;20.50;99.90;;;;;;4971072;28;20482;-81
2023/09/09 08:23:47;;;;;;;43.45;38.25;;;20.50;99.90;;;;;;4969716;28;20097;-82
2023/09/09 08:26:12;;;;;;;43.80;36.15;;;20.60;99.90;;;;;;4971726;28;20047;-82
2023/09/09 08:28:39;;;;;;;44.72;36.92;;;20.60;99.90;;;;;;4974185;28;20043;-81
2023/09/09 08:31:05;;;;;;;45.55;37.85;;;20.70;99.90;;;;;;4963004;28;20045;-82
2023/09/09 08:33:31;;;;;;;41.15;35.88;;;20.70;99.90;;;;;;4969396;28;20433;-82
2023/09/09 08:36:00;;;;;;;46.20;38.67;;;20.80;99.90;;;;;;4970954;28;20346;-81
2023/09/09 08:38:30;;;;;;;46.17;39.03;;;20.90;99.90;;;;;;4970755;28;20064;-82
2023/09/09 08:41:11;;;;;;;44.15;35.92;;;20.90;99.90;;;;;;4951362;28;20055;-82
2023/09/09 08:43:44;;;;;;;43.72;37.08;;;21.00;99.90;;;;;;4979438;28;20127;-82
2023/09/09 08:46:14;;;;;;;52.38;41.28;;;21.10;99.90;;;;;;4952233;28;20043;-82
2023/09/09 08:48:44;;;;;;;49.03;39.72;;;21.20;99.90;;;;;;4969720;28;20039;-82
2023/09/09 08:51:14;;;;;;;42.42;36.22;;;21.30;99.90;;;;;;4975089;28;20043;-82
2023/09/09 08:53:41;;;;;;;43.92;38.35;;;21.40;99.90;;;;;;4952802;28;20093;-82
2023/09/09 08:56:07;;;;;;;42.70;36.65;;;21.50;99.90;;;;;;4973326;28;20130;-82
2023/09/09 08:58:33;;;;;;;46.00;38.78;;;21.60;99.90;;;;;;4971057;28;20049;-82
2023/09/09 09:01:00;;;;;;;44.60;39.35;;;21.70;99.90;;;;;;4969355;28;20059;-81
2023/09/09 09:03:27;;;;;;;50.83;39.92;;;21.80;99.90;;;;;;4952260;28;20126;-82
2023/09/09 09:05:56;;;;;;;44.92;38.30;;;22.00;99.90;;;;;;4970464;28;20046;-82
2023/09/09 09:08:22;;;;;;;47.80;38.78;;;22.20;99.90;;;;;;4977769;28;20046;-82
2023/09/09 09:10:48;;;;;;;39.63;35.33;;;22.30;99.90;;;;;;4974972;28;20390;-82
2023/09/09 09:13:14;;;;;;;44.25;38.80;;;22.40;99.90;;;;;;4958078;28;20048;-82
2023/09/09 09:15:41;;;;;;;41.78;36.95;;;22.50;99.90;;;;;;4967879;28;20035;-82
2023/09/09 09:18:13;;;;;;;47.72;36.72;;;22.70;99.90;;;;;;4969077;28;20074;-82
2023/09/09 09:20:40;;;;;;;42.00;37.42;;;22.80;99.90;;;;;;4978098;28;20046;-82
2023/09/09 09:23:10;;;;;;;41.88;36.83;;;23.00;99.90;;;;;;4985143;28;20486;-82
2023/09/09 09:25:45;;;;;;;41.85;35.88;;;23.20;99.90;;;;;;4980757;28;20148;-82
2023/09/09 09:28:15;;;;;;;42.08;33.92;;;23.30;99.90;;;;;;4983499;28;20039;-82
2023/09/09 09:30:42;;;;;;;37.72;33.45;;;23.50;99.90;;;;;;4971642;28;20058;-82
2023/09/09 09:33:08;;;;;;;37.38;33.33;;;23.50;99.90;;;;;;4977476;28;20087;-81
2023/09/09 09:35:37;;;;;;;34.58;30.73;;;23.60;99.90;;;;;;4987589;28;20054;-82
2023/09/09 09:38:09;;;;;;;37.60;33.30;;;23.70;99.90;;;;;;4972650;28;20065;-82
2023/09/09 09:40:36;;;;;;;36.17;30.92;;;23.80;99.90;;;;;;4968272;28;20114;-82
2023/09/09 09:43:02;;;;;;;36.30;32.47;;;23.90;99.90;;;;;;4991979;28;20517;-82
2023/09/09 09:45:29;;;;;;;36.20;30.35;;;24.00;99.90;;;;;;4955468;28;20039;-82
2023/09/09 09:47:56;;;;;;;36.47;27.73;;;24.20;99.90;;;;;;4955284;28;20113;-82
2023/09/09 09:50:30;;;;;;;37.45;30.48;;;24.40;99.90;;;;;;4974226;28;20047;-82
2023/09/09 09:53:00;;;;;;;37.53;30.08;;;24.40;99.90;;;;;;4974098;28;20379;-82
2023/09/09 09:55:27;;;;;;;30.48;27.20;;;24.60;99.90;;;;;;4977127;28;20038;-82
2023/09/09 09:58:03;;;;;;;28.30;25.13;;;24.70;99.90;;;;;;4978470;28;20077;-82
2023/09/09 10:00:32;;;;;;;29.92;25.45;;;24.80;99.90;;;;;;4972109;28;20043;-82
2023/09/09 10:03:00;;;;;;;28.50;25.52;;;24.90;99.90;;;;;;4973112;28;20042;-82
2023/09/09 10:05:27;;;;;;;32.35;25.75;;;25.10;99.90;;;;;;4971783;28;20130;-82
2023/09/09 10:08:08;;;;;;;26.73;24.00;;;25.20;99.90;;;;;;4976589;28;20134;-82
2023/09/09 10:10:36;;;;;;;29.85;25.85;;;25.30;99.90;;;;;;4971662;28;20039;-82
2023/09/09 10:13:26;;;;;;;26.63;23.80;;;25.50;99.90;;;;;;4972653;28;20054;-82
2023/09/09 10:15:54;;;;;;;31.52;25.95;;;25.60;99.90;;;;;;4974756;28;20041;-82
2023/09/09 10:18:22;;;;;;;32.20;25.13;;;25.70;99.90;;;;;;4974747;28;20038;-82
2023/09/09 10:20:49;;;;;;;27.20;23.45;;;25.80;99.90;;;;;;4972998;28;20043;-83
2023/09/09 10:23:17;;;;;;;27.42;23.27;;;26.00;99.90;;;;;;4976720;28;20059;-82
2023/09/09 10:25:47;;;;;;;27.27;22.55;;;26.10;99.90;;;;;;4982881;28;20042;-82
2023/09/09 10:28:13;;;;;;;24.10;21.60;;;26.20;99.90;;;;;;4971511;28;20061;-82
2023/09/09 10:30:42;;;;;;;29.95;25.27;;;26.20;99.90;;;;;;4954491;28;20039;-82
2023/09/09 10:33:12;;;;;;;29.55;26.35;;;26.30;99.90;;;;;;4981107;28;20045;-82
2023/09/09 10:35:39;;;;;;;27.75;23.75;;;26.30;99.90;;;;;;4971790;28;20057;-82
2023/09/09 10:38:06;;;;;;;26.30;22.40;;;26.40;99.90;;;;;;4970483;28;20453;-83
2023/09/09 10:40:32;;;;;;;25.80;23.02;;;26.50;99.90;;;;;;4971049;28;20043;-82
2023/09/09 10:42:58;;;;;;;24.75;22.15;;;26.60;99.90;;;;;;4971554;28;20073;-82
2023/09/09 10:45:25;;;;;;;22.92;19.95;;;26.60;99.90;;;;;;4974642;28;20065;-82
2023/09/09 10:48:01;;;;;;;23.05;19.95;;;26.70;99.90;;;;;;4970731;28;20042;-82
2023/09/09 10:50:49;;;;;;;22.33;20.10;;;26.80;99.90;;;;;;4978687;28;20061;-82
2023/09/09 10:53:27;;;;;;;21.65;17.83;;;27.00;99.90;;;;;;4984826;28;20092;-82
2023/09/09 10:55:55;;;;;;;22.00;17.45;;;27.10;99.90;;;;;;4971900;28;20518;-82
2023/09/09 10:58:31;;;;;;;18.33;16.33;;;27.20;99.90;;;;;;4975116;28;20039;-82
2023/09/09 11:00:57;;;;;;;23.35;17.77;;;27.30;99.90;;;;;;4960544;28;20046;-82
2023/09/09 11:03:51;;;;;;;19.80;17.08;;;27.40;99.90;;;;;;4970670;28;20042;-82
2023/09/09 11:06:30;;;;;;;18.08;15.73;;;27.40;99.90;;;;;;4974356;28;20069;-82
2023/09/09 11:08:58;;;;;;;21.63;17.52;;;27.50;99.90;;;;;;4969706;28;20089;-82
2023/09/09 11:11:37;;;;;;;18.30;15.70;;;27.50;99.90;;;;;;4973408;28;20035;-82
2023/09/09 11:14:07;;;;;;;19.30;17.30;;;27.50;99.90;;;;;;4955815;28;20046;-82
2023/09/09 11:16:34;;;;;;;18.35;16.45;;;27.60;99.90;;;;;;4964049;28;20038;-82
2023/09/09 11:19:16;;;;;;;17.27;14.50;;;27.70;99.90;;;;;;4970214;28;20111;-82
2023/09/09 11:21:46;;;;;;;17.83;15.57;;;27.80;99.90;;;;;;4971957;28;20045;-82
2023/09/09 11:24:12;;;;;;;18.85;16.75;;;27.90;99.90;;;;;;4970274;28;20043;-82
2023/09/09 11:26:39;;;;;;;21.45;16.40;;;28.00;99.90;;;;;;4976507;28;20058;-82
2023/09/09 11:29:07;;;;;;;19.58;15.40;;;28.00;99.90;;;;;;4971734;28;20166;-82
2023/09/09 11:31:32;;;;;;;18.92;16.85;;;28.00;99.90;;;;;;4970927;28;20050;-82
2023/09/09 11:33:59;;;;;;;19.45;14.95;;;28.10;99.90;;;;;;4970577;28;20280;-82
2023/09/09 11:36:25;;;;;;;20.33;16.83;;;28.20;99.90;;;;;;4976898;28;20043;-82
2023/09/09 11:38:53;;;;;;;22.55;17.55;;;28.20;99.90;;;;;;4971690;28;20498;-82
2023/09/09 11:41:23;;;;;;;23.58;18.88;;;28.30;99.90;;;;;;4982957;28;20039;-82
2023/09/09 11:44:21;;;;;;;19.38;16.92;;;28.30;99.90;;;;;;4972254;28;20046;-82
2023/09/09 11:46:49;;;;;;;20.02;17.55;;;28.40;99.90;;;;;;4982934;28;20050;-82
2023/09/09 11:49:16;;;;;;;19.98;16.13;;;28.50;99.90;;;;;;4971788;28;20489;-82
2023/09/09 11:51:43;;;;;;;18.20;15.27;;;28.50;99.90;;;;;;4969246;28;20078;-82
2023/09/09 11:54:11;;;;;;;23.00;17.17;;;28.60;99.90;;;;;;4969892;28;20050;-83
2023/09/09 11:56:36;;;;;;;22.48;14.95;;;28.60;99.90;;;;;;4971917;28;20490;-82
2023/09/09 11:59:15;;;;;;;19.98;16.98;;;28.60;99.90;;;;;;4970152;28;20043;-82
2023/09/09 12:01:42;;;;;;;16.83;14.98;;;28.50;99.90;;;;;;4970341;28;20051;-82
2023/09/09 12:04:08;;;;;;;18.45;14.90;;;28.60;99.90;;;;;;4968549;28;20046;-82
2023/09/09 12:06:35;;;;;;;20.35;16.85;;;28.70;99.90;;;;;;4970279;28;20387;-82
2023/09/09 12:09:05;;;;;;;19.50;17.23;;;28.70;99.90;;;;;;4971487;28;20043;-82
2023/09/09 12:11:31;;;;;;;23.38;19.15;;;28.80;99.90;;;;;;4971609;28;20035;-82
2023/09/09 12:13:57;;;;;;;18.35;16.45;;;28.80;99.90;;;;;;4955974;28;20049;-82
2023/09/09 12:16:23;;;;;;;18.20;16.33;;;28.80;99.90;;;;;;4985071;28;20154;-83
2023/09/09 12:18:53;;;;;;;18.92;15.90;;;28.80;99.90;;;;;;4969050;28;20118;-82
2023/09/09 12:21:19;;;;;;;18.35;16.45;;;28.70;99.90;;;;;;4977897;28;20046;-82
2023/09/09 12:23:45;;;;;;;17.33;15.55;;;28.70;99.90;;;;;;4975092;28;20039;-82
2023/09/09 12:26:16;;;;;;;19.73;14.65;;;28.90;99.90;;;;;;4970989;28;20126;-82
2023/09/09 12:28:47;;;;;;;19.63;15.50;;;29.00;99.90;;;;;;4969674;28;20154;-82